sensor_id;sensor_type;location;lat;lon;timestamp;temperature;humidity
61392;DHT22;47261;52.892;5.738;2023-08-31T00:00:35;13.90;99.90
61392;DHT22;47261;52.892;5.738;2023-08-31T00:03:02;14.00;99.90
61392;DHT22;47261;52.892;5.738;2023-08-31T00:05:28;13.90;99.90
61392;DHT22;47261;52.892;5.738;2023-08-31T00:07:56;14.00;99.90
61392;DHT22;47261;52.892;5.738;2023-08-31T00:10:21;14.00;99.90
61392;DHT22;47261;52.892;5.738;2023-08-31T00:12:47;14.00;99.90
61392;DHT22;47261;52.892;5.738;2023-08-31T00:15:14;14.10;99.90
61392;DHT22;47261;52.892;5.738;2023-08-31T00:17:40;14.10;99.90
61392;DHT22;47261;52.892;5.738;2023-08-31T00:20:07;14.10;99.90
61392;DHT22;47261;52.892;5.738;2023-08-31T00:22:37;14.10;99.90
61392;DHT22;47261;52.892;5.738;2023-08-31T00:25:04;14.20;99.90
61392;DHT22;47261;52.892;5.738;2023-08-31T00:27:31;14.20;99.90
61392;DHT22;47261;52.892;5.738;2023-08-31T00:29:56;14.20;99.90
61392;DHT22;47261;52.892;5.738;2023-08-31T00:32:23;14.20;99.90
61392;DHT22;47261;52.892;5.738;2023-08-31T00:34:50;14.30;99.90
61392;DHT22;47261;52.892;5.738;2023-08-31T00:37:16;14.30;99.90
61392;DHT22;47261;52.892;5.738;2023-08-31T00:39:42;14.30;99.90
61392;DHT22;47261;52.892;5.738;2023-08-31T00:42:09;14.30;99.90
61392;DHT22;47261;52.892;5.738;2023-08-31T00:44:35;14.20;99.90
61392;DHT22;47261;52.892;5.738;2023-08-31T00:47:01;14.20;99.90
61392;DHT22;47261;52.892;5.738;2023-08-31T00:49:28;14.20;99.90
61392;DHT22;47261;52.892;5.738;2023-08-31T00:51:54;14.10;99.90
61392;DHT22;47261;52.892;5.738;2023-08-31T00:54:23;14.10;99.90
61392;DHT22;47261;52.892;5.738;2023-08-31T00:56:53;14.10;99.90
61392;DHT22;47261;52.892;5.738;2023-08-31T00:59:19;14.10;99.90
61392;DHT22;47261;52.892;5.738;2023-08-31T01:02:11;14.10;99.90
61392;DHT22;47261;52.892;5.738;2023-08-31T01:07:48;14.00;99.90
61392;DHT22;47261;52.892;5.738;2023-08-31T01:13:21;14.00;99.90
61392;DHT22;47261;52.892;5.738;2023-08-31T01:15:54;14.00;99.90
61392;DHT22;47261;52.892;5.738;2023-08-31T01:18:22;13.90;99.90
61392;DHT22;47261;52.892;5.738;2023-08-31T01:21:27;13.90;99.90
61392;DHT22;47261;52.892;5.738;2023-08-31T01:23:54;13.90;99.90
61392;DHT22;47261;52.892;5.738;2023-08-31T01:26:21;13.90;99.90
61392;DHT22;47261;52.892;5.738;2023-08-31T01:28:48;13.90;99.90
61392;DHT22;47261;52.892;5.738;2023-08-31T01:31:14;13.90;99.90
61392;DHT22;47261;52.892;5.738;2023-08-31T01:33:42;13.90;99.90
61392;DHT22;47261;52.892;5.738;2023-08-31T01:38:42;13.90;99.90
61392;DHT22;47261;52.892;5.738;2023-08-31T01:41:13;13.90;99.90
61392;DHT22;47261;52.892;5.738;2023-08-31T01:43:42;13.90;99.90
61392;DHT22;47261;52.892;5.738;2023-08-31T01:46:08;13.90;99.90
61392;DHT22;47261;52.892;5.738;2023-08-31T01:48:41;14.00;99.90
61392;DHT22;47261;52.892;5.738;2023-08-31T01:51:10;14.00;99.90
61392;DHT22;47261;52.892;5.738;2023-08-31T01:53:36;14.00;99.90
61392;DHT22;47261;52.892;5.738;2023-08-31T01:56:02;14.10;99.90
61392;DHT22;47261;52.892;5.738;2023-08-31T01:58:28;14.10;99.90
61392;DHT22;47261;52.892;5.738;2023-08-31T02:00:53;14.10;99.90
61392;DHT22;47261;52.892;5.738;2023-08-31T02:03:19;14.20;99.90
61392;DHT22;47261;52.892;5.738;2023-08-31T02:05:44;14.30;99.90
61392;DHT22;47261;52.892;5.738;2023-08-31T02:08:10;14.40;99.90
61392;DHT22;47261;52.892;5.738;2023-08-31T02:10:36;14.40;99.90
61392;DHT22;47261;52.892;5.738;2023-08-31T02:13:01;14.50;99.90
61392;DHT22;47261;52.892;5.738;2023-08-31T02:15:27;14.50;99.90
61392;DHT22;47261;52.892;5.738;2023-08-31T02:17:53;14.50;99.90
61392;DHT22;47261;52.892;5.738;2023-08-31T02:20:19;14.50;99.90
61392;DHT22;47261;52.892;5.738;2023-08-31T02:22:46;14.50;99.90
61392;DHT22;47261;52.892;5.738;2023-08-31T02:25:12;14.50;99.90
61392;DHT22;47261;52.892;5.738;2023-08-31T02:27:39;14.50;99.90
61392;DHT22;47261;52.892;5.738;2023-08-31T02:30:05;14.40;99.90
61392;DHT22;47261;52.892;5.738;2023-08-31T02:32:31;14.40;99.90
61392;DHT22;47261;52.892;5.738;2023-08-31T02:34:57;14.40;99.90
61392;DHT22;47261;52.892;5.738;2023-08-31T02:37:22;14.40;99.90
61392;DHT22;47261;52.892;5.738;2023-08-31T02:39:48;14.40;99.90
61392;DHT22;47261;52.892;5.738;2023-08-31T02:42:14;14.40;99.90
61392;DHT22;47261;52.892;5.738;2023-08-31T02:44:40;14.50;99.90
61392;DHT22;47261;52.892;5.738;2023-08-31T02:47:05;14.50;99.90
61392;DHT22;47261;52.892;5.738;2023-08-31T02:49:31;14.50;99.90
61392;DHT22;47261;52.892;5.738;2023-08-31T02:51:57;14.50;99.90
61392;DHT22;47261;52.892;5.738;2023-08-31T02:54:22;14.50;99.90
61392;DHT22;47261;52.892;5.738;2023-08-31T02:56:48;14.50;99.90
61392;DHT22;47261;52.892;5.738;2023-08-31T02:59:14;14.50;99.90
61392;DHT22;47261;52.892;5.738;2023-08-31T03:01:39;14.50;99.90
61392;DHT22;47261;52.892;5.738;2023-08-31T03:04:06;14.50;99.90
61392;DHT22;47261;52.892;5.738;2023-08-31T03:06:32;14.50;99.90
61392;DHT22;47261;52.892;5.738;2023-08-31T03:08:58;14.50;99.90
61392;DHT22;47261;52.892;5.738;2023-08-31T03:11:24;14.50;99.90
61392;DHT22;47261;52.892;5.738;2023-08-31T03:13:49;14.50;99.90
61392;DHT22;47261;52.892;5.738;2023-08-31T03:16:15;14.60;99.90
61392;DHT22;47261;52.892;5.738;2023-08-31T03:18:41;14.60;99.90
61392;DHT22;47261;52.892;5.738;2023-08-31T03:21:06;14.60;99.90
61392;DHT22;47261;52.892;5.738;2023-08-31T03:23:33;14.60;99.90
61392;DHT22;47261;52.892;5.738;2023-08-31T03:25:59;14.60;99.90
61392;DHT22;47261;52.892;5.738;2023-08-31T03:28:24;14.60;99.90
61392;DHT22;47261;52.892;5.738;2023-08-31T03:30:56;14.60;99.90
61392;DHT22;47261;52.892;5.738;2023-08-31T03:33:22;14.60;99.90
61392;DHT22;47261;52.892;5.738;2023-08-31T03:35:48;14.60;99.90
61392;DHT22;47261;52.892;5.738;2023-08-31T03:38:13;14.60;99.90
61392;DHT22;47261;52.892;5.738;2023-08-31T03:40:39;14.60;99.90
61392;DHT22;47261;52.892;5.738;2023-08-31T03:43:05;14.60;99.90
61392;DHT22;47261;52.892;5.738;2023-08-31T03:45:30;14.60;99.90
61392;DHT22;47261;52.892;5.738;2023-08-31T03:47:56;14.60;99.90
61392;DHT22;47261;52.892;5.738;2023-08-31T03:50:21;14.60;99.90
61392;DHT22;47261;52.892;5.738;2023-08-31T03:52:47;14.50;99.90
61392;DHT22;47261;52.892;5.738;2023-08-31T03:55:13;14.50;99.90
61392;DHT22;47261;52.892;5.738;2023-08-31T03:57:38;14.50;99.90
61392;DHT22;47261;52.892;5.738;2023-08-31T04:00:04;14.40;99.90
61392;DHT22;47261;52.892;5.738;2023-08-31T04:02:38;14.40;99.90
61392;DHT22;47261;52.892;5.738;2023-08-31T04:05:04;14.30;99.90
61392;DHT22;47261;52.892;5.738;2023-08-31T04:07:32;14.20;99.90
61392;DHT22;47261;52.892;5.738;2023-08-31T04:09:58;14.20;99.90
61392;DHT22;47261;52.892;5.738;2023-08-31T04:12:24;14.20;99.90
61392;DHT22;47261;52.892;5.738;2023-08-31T04:14:50;14.10;99.90
61392;DHT22;47261;52.892;5.738;2023-08-31T04:17:15;14.00;99.90
61392;DHT22;47261;52.892;5.738;2023-08-31T04:19:41;14.00;99.90
61392;DHT22;47261;52.892;5.738;2023-08-31T04:22:07;13.90;99.90
61392;DHT22;47261;52.892;5.738;2023-08-31T04:24:33;13.90;99.90
61392;DHT22;47261;52.892;5.738;2023-08-31T04:26:58;13.80;99.90
61392;DHT22;47261;52.892;5.738;2023-08-31T04:29:24;13.80;99.90
61392;DHT22;47261;52.892;5.738;2023-08-31T04:31:50;13.80;99.90
61392;DHT22;47261;52.892;5.738;2023-08-31T04:34:16;13.70;99.90
61392;DHT22;47261;52.892;5.738;2023-08-31T04:36:41;13.70;99.90
61392;DHT22;47261;52.892;5.738;2023-08-31T04:39:07;13.60;99.90
61392;DHT22;47261;52.892;5.738;2023-08-31T04:41:33;13.60;99.90
61392;DHT22;47261;52.892;5.738;2023-08-31T04:43:59;13.60;99.90
61392;DHT22;47261;52.892;5.738;2023-08-31T04:46:24;13.60;99.90
61392;DHT22;47261;52.892;5.738;2023-08-31T04:48:50;13.60;99.90
61392;DHT22;47261;52.892;5.738;2023-08-31T04:51:35;13.50;99.90
61392;DHT22;47261;52.892;5.738;2023-08-31T04:54:05;13.50;99.90
61392;DHT22;47261;52.892;5.738;2023-08-31T04:56:31;13.50;99.90
61392;DHT22;47261;52.892;5.738;2023-08-31T04:58:58;13.50;99.90
61392;DHT22;47261;52.892;5.738;2023-08-31T05:01:24;13.50;99.90
61392;DHT22;47261;52.892;5.738;2023-08-31T05:03:49;13.50;99.90
61392;DHT22;47261;52.892;5.738;2023-08-31T05:06:15;13.50;99.90
61392;DHT22;47261;52.892;5.738;2023-08-31T05:08:40;13.60;99.90
61392;DHT22;47261;52.892;5.738;2023-08-31T05:11:06;13.60;99.90
61392;DHT22;47261;52.892;5.738;2023-08-31T05:13:32;13.60;99.90
61392;DHT22;47261;52.892;5.738;2023-08-31T05:15:57;13.70;99.90
61392;DHT22;47261;52.892;5.738;2023-08-31T05:18:23;13.70;99.90
61392;DHT22;47261;52.892;5.738;2023-08-31T05:20:49;13.80;99.90
61392;DHT22;47261;52.892;5.738;2023-08-31T05:23:15;13.90;99.90
61392;DHT22;47261;52.892;5.738;2023-08-31T05:25:44;14.00;99.90
61392;DHT22;47261;52.892;5.738;2023-08-31T05:28:09;14.00;99.90
61392;DHT22;47261;52.892;5.738;2023-08-31T05:30:35;14.00;99.90
61392;DHT22;47261;52.892;5.738;2023-08-31T05:33:01;14.10;99.90
61392;DHT22;47261;52.892;5.738;2023-08-31T05:35:27;14.10;99.90
61392;DHT22;47261;52.892;5.738;2023-08-31T05:37:53;14.20;99.90
61392;DHT22;47261;52.892;5.738;2023-08-31T05:40:18;14.20;99.90
61392;DHT22;47261;52.892;5.738;2023-08-31T05:42:44;14.20;99.90
61392;DHT22;47261;52.892;5.738;2023-08-31T05:45:10;14.30;99.90
61392;DHT22;47261;52.892;5.738;2023-08-31T05:47:36;14.40;99.90
61392;DHT22;47261;52.892;5.738;2023-08-31T05:50:02;14.50;99.90
61392;DHT22;47261;52.892;5.738;2023-08-31T05:52:28;14.70;99.90
61392;DHT22;47261;52.892;5.738;2023-08-31T05:54:54;14.90;99.90
61392;DHT22;47261;52.892;5.738;2023-08-31T05:57:20;15.10;99.90
61392;DHT22;47261;52.892;5.738;2023-08-31T05:59:48;15.20;99.90
61392;DHT22;47261;52.892;5.738;2023-08-31T06:02:14;15.40;99.90
61392;DHT22;47261;52.892;5.738;2023-08-31T06:04:40;15.50;99.90
61392;DHT22;47261;52.892;5.738;2023-08-31T06:07:05;15.60;99.90
61392;DHT22;47261;52.892;5.738;2023-08-31T06:09:31;15.60;99.90
61392;DHT22;47261;52.892;5.738;2023-08-31T06:11:57;15.80;99.90
61392;DHT22;47261;52.892;5.738;2023-08-31T06:14:22;15.90;99.90
61392;DHT22;47261;52.892;5.738;2023-08-31T06:16:48;15.90;99.90
61392;DHT22;47261;52.892;5.738;2023-08-31T06:19:13;16.00;99.90
61392;DHT22;47261;52.892;5.738;2023-08-31T06:21:42;16.00;99.90
61392;DHT22;47261;52.892;5.738;2023-08-31T06:24:08;16.00;99.90
61392;DHT22;47261;52.892;5.738;2023-08-31T06:26:36;16.00;99.90
61392;DHT22;47261;52.892;5.738;2023-08-31T06:29:02;15.90;99.90
61392;DHT22;47261;52.892;5.738;2023-08-31T06:31:29;15.90;99.90
61392;DHT22;47261;52.892;5.738;2023-08-31T06:33:54;15.80;99.90
61392;DHT22;47261;52.892;5.738;2023-08-31T06:36:20;15.80;99.90
61392;DHT22;47261;52.892;5.738;2023-08-31T06:38:46;15.80;99.90
61392;DHT22;47261;52.892;5.738;2023-08-31T06:41:12;15.90;99.90
61392;DHT22;47261;52.892;5.738;2023-08-31T06:43:37;16.00;99.90
61392;DHT22;47261;52.892;5.738;2023-08-31T06:46:03;16.20;99.90
61392;DHT22;47261;52.892;5.738;2023-08-31T06:48:29;16.20;99.90
61392;DHT22;47261;52.892;5.738;2023-08-31T06:50:54;16.30;99.90
61392;DHT22;47261;52.892;5.738;2023-08-31T06:53:21;16.30;99.90
61392;DHT22;47261;52.892;5.738;2023-08-31T06:55:47;16.30;99.90
61392;DHT22;47261;52.892;5.738;2023-08-31T06:58:13;16.30;99.90
61392;DHT22;47261;52.892;5.738;2023-08-31T07:00:38;16.40;99.90
61392;DHT22;47261;52.892;5.738;2023-08-31T07:03:04;16.50;99.90
61392;DHT22;47261;52.892;5.738;2023-08-31T07:05:33;16.50;99.90
61392;DHT22;47261;52.892;5.738;2023-08-31T07:08:02;16.60;99.90
61392;DHT22;47261;52.892;5.738;2023-08-31T07:10:28;16.70;99.90
61392;DHT22;47261;52.892;5.738;2023-08-31T07:12:54;16.80;99.90
61392;DHT22;47261;52.892;5.738;2023-08-31T07:15:19;16.90;99.90
61392;DHT22;47261;52.892;5.738;2023-08-31T07:17:45;17.10;99.90
61392;DHT22;47261;52.892;5.738;2023-08-31T07:20:12;17.20;99.90
61392;DHT22;47261;52.892;5.738;2023-08-31T07:22:38;17.20;99.90
61392;DHT22;47261;52.892;5.738;2023-08-31T07:25:04;17.20;99.90
61392;DHT22;47261;52.892;5.738;2023-08-31T07:27:31;17.10;99.90
61392;DHT22;47261;52.892;5.738;2023-08-31T07:29:57;16.90;99.80
61392;DHT22;47261;52.892;5.738;2023-08-31T07:32:22;16.80;99.90
61392;DHT22;47261;52.892;5.738;2023-08-31T07:34:48;16.70;99.90
61392;DHT22;47261;52.892;5.738;2023-08-31T07:37:14;16.60;99.90
61392;DHT22;47261;52.892;5.738;2023-08-31T07:39:39;16.50;99.90
61392;DHT22;47261;52.892;5.738;2023-08-31T07:42:06;16.50;99.90
61392;DHT22;47261;52.892;5.738;2023-08-31T07:44:31;16.50;99.90
61392;DHT22;47261;52.892;5.738;2023-08-31T07:46:57;16.40;99.90
61392;DHT22;47261;52.892;5.738;2023-08-31T07:49:23;16.50;99.90
61392;DHT22;47261;52.892;5.738;2023-08-31T07:51:49;16.60;99.90
61392;DHT22;47261;52.892;5.738;2023-08-31T07:54:24;16.70;99.90
61392;DHT22;47261;52.892;5.738;2023-08-31T07:56:50;16.70;99.90
61392;DHT22;47261;52.892;5.738;2023-08-31T07:59:19;16.80;99.90
61392;DHT22;47261;52.892;5.738;2023-08-31T08:01:45;16.90;99.90
61392;DHT22;47261;52.892;5.738;2023-08-31T08:04:11;17.00;99.90
61392;DHT22;47261;52.892;5.738;2023-08-31T08:06:37;17.10;99.90
61392;DHT22;47261;52.892;5.738;2023-08-31T08:09:03;17.10;99.90
61392;DHT22;47261;52.892;5.738;2023-08-31T08:11:30;17.10;98.80
61392;DHT22;47261;52.892;5.738;2023-08-31T08:13:56;17.20;98.30
61392;DHT22;47261;52.892;5.738;2023-08-31T08:16:22;17.20;97.80
61392;DHT22;47261;52.892;5.738;2023-08-31T08:18:50;17.30;97.80
61392;DHT22;47261;52.892;5.738;2023-08-31T08:21:16;17.40;97.90
61392;DHT22;47261;52.892;5.738;2023-08-31T08:23:42;17.50;97.70
61392;DHT22;47261;52.892;5.738;2023-08-31T08:26:08;17.50;97.60
61392;DHT22;47261;52.892;5.738;2023-08-31T08:28:33;17.60;97.20
61392;DHT22;47261;52.892;5.738;2023-08-31T08:31:02;17.60;97.10
61392;DHT22;47261;52.892;5.738;2023-08-31T08:33:31;17.70;97.00
61392;DHT22;47261;52.892;5.738;2023-08-31T08:35:57;17.70;96.80
61392;DHT22;47261;52.892;5.738;2023-08-31T08:38:23;17.60;96.70
61392;DHT22;47261;52.892;5.738;2023-08-31T08:40:49;17.70;96.60
61392;DHT22;47261;52.892;5.738;2023-08-31T08:43:15;17.70;96.40
61392;DHT22;47261;52.892;5.738;2023-08-31T08:45:43;17.80;96.40
61392;DHT22;47261;52.892;5.738;2023-08-31T08:48:10;17.90;96.30
61392;DHT22;47261;52.892;5.738;2023-08-31T08:50:36;18.00;96.10
61392;DHT22;47261;52.892;5.738;2023-08-31T08:53:03;18.00;96.00
61392;DHT22;47261;52.892;5.738;2023-08-31T08:55:29;18.20;96.30
61392;DHT22;47261;52.892;5.738;2023-08-31T08:57:57;18.20;96.10
61392;DHT22;47261;52.892;5.738;2023-08-31T09:00:23;18.30;95.90
61392;DHT22;47261;52.892;5.738;2023-08-31T09:02:48;18.40;95.80
61392;DHT22;47261;52.892;5.738;2023-08-31T09:05:14;18.40;95.90
61392;DHT22;47261;52.892;5.738;2023-08-31T09:08:06;18.50;95.60
61392;DHT22;47261;52.892;5.738;2023-08-31T09:10:43;18.70;95.50
61392;DHT22;47261;52.892;5.738;2023-08-31T09:13:16;18.80;95.60
61392;DHT22;47261;52.892;5.738;2023-08-31T09:15:47;18.70;94.80
61392;DHT22;47261;52.892;5.738;2023-08-31T09:18:14;18.60;94.40
61392;DHT22;47261;52.892;5.738;2023-08-31T09:20:45;18.40;94.60
61392;DHT22;47261;52.892;5.738;2023-08-31T09:23:12;18.10;95.10
61392;DHT22;47261;52.892;5.738;2023-08-31T09:25:42;17.90;95.70
61392;DHT22;47261;52.892;5.738;2023-08-31T09:28:09;17.70;96.20
61392;DHT22;47261;52.892;5.738;2023-08-31T09:30:36;17.60;96.70
61392;DHT22;47261;52.892;5.738;2023-08-31T09:33:04;17.50;97.00
61392;DHT22;47261;52.892;5.738;2023-08-31T09:35:30;17.40;97.30
61392;DHT22;47261;52.892;5.738;2023-08-31T09:37:56;17.40;97.90
61392;DHT22;47261;52.892;5.738;2023-08-31T09:40:23;17.60;98.60
61392;DHT22;47261;52.892;5.738;2023-08-31T09:42:51;17.90;99.20
61392;DHT22;47261;52.892;5.738;2023-08-31T09:45:23;18.10;98.90
61392;DHT22;47261;52.892;5.738;2023-08-31T09:47:50;18.10;98.60
61392;DHT22;47261;52.892;5.738;2023-08-31T09:50:17;18.10;98.50
61392;DHT22;47261;52.892;5.738;2023-08-31T09:52:43;18.00;98.50
61392;DHT22;47261;52.892;5.738;2023-08-31T09:55:11;17.90;98.60
61392;DHT22;47261;52.892;5.738;2023-08-31T09:57:38;17.90;98.70
61392;DHT22;47261;52.892;5.738;2023-08-31T10:00:04;17.80;98.80
61392;DHT22;47261;52.892;5.738;2023-08-31T10:02:30;17.60;98.70
61392;DHT22;47261;52.892;5.738;2023-08-31T10:04:58;17.50;98.70
61392;DHT22;47261;52.892;5.738;2023-08-31T10:07:24;17.50;98.80
61392;DHT22;47261;52.892;5.738;2023-08-31T10:09:51;17.50;98.90
61392;DHT22;47261;52.892;5.738;2023-08-31T10:12:18;17.50;99.10
61392;DHT22;47261;52.892;5.738;2023-08-31T10:14:45;17.80;99.80
61392;DHT22;47261;52.892;5.738;2023-08-31T10:17:12;18.20;99.90
61392;DHT22;47261;52.892;5.738;2023-08-31T10:19:39;18.30;99.50
61392;DHT22;47261;52.892;5.738;2023-08-31T10:22:06;18.40;98.90
61392;DHT22;47261;52.892;5.738;2023-08-31T10:24:58;18.30;98.60
61392;DHT22;47261;52.892;5.738;2023-08-31T10:27:24;18.40;99.30
61392;DHT22;47261;52.892;5.738;2023-08-31T10:29:50;18.70;99.50
61392;DHT22;47261;52.892;5.738;2023-08-31T10:32:19;19.10;99.60
61392;DHT22;47261;52.892;5.738;2023-08-31T10:35:05;19.50;99.30
61392;DHT22;47261;52.892;5.738;2023-08-31T10:37:30;19.70;97.60
61392;DHT22;47261;52.892;5.738;2023-08-31T10:40:10;19.60;97.00
61392;DHT22;47261;52.892;5.738;2023-08-31T10:42:46;19.40;96.80
61392;DHT22;47261;52.892;5.738;2023-08-31T10:45:20;19.30;97.00
61392;DHT22;47261;52.892;5.738;2023-08-31T10:47:46;19.40;97.50
61392;DHT22;47261;52.892;5.738;2023-08-31T10:50:20;19.50;97.80
61392;DHT22;47261;52.892;5.738;2023-08-31T10:52:46;19.60;97.70
61392;DHT22;47261;52.892;5.738;2023-08-31T10:55:12;19.60;97.40
61392;DHT22;47261;52.892;5.738;2023-08-31T10:57:39;19.50;97.20
61392;DHT22;47261;52.892;5.738;2023-08-31T11:00:07;19.40;97.30
61392;DHT22;47261;52.892;5.738;2023-08-31T11:02:43;19.50;97.80
61392;DHT22;47261;52.892;5.738;2023-08-31T11:07:48;20.00;96.90
61392;DHT22;47261;52.892;5.738;2023-08-31T11:10:19;20.20;96.40
61392;DHT22;47261;52.892;5.738;2023-08-31T11:12:50;20.40;95.70
61392;DHT22;47261;52.892;5.738;2023-08-31T11:15:18;20.30;94.70
61392;DHT22;47261;52.892;5.738;2023-08-31T11:17:44;20.30;93.30
61392;DHT22;47261;52.892;5.738;2023-08-31T11:20:15;20.30;93.40
61392;DHT22;47261;52.892;5.738;2023-08-31T11:22:42;20.40;93.50
61392;DHT22;47261;52.892;5.738;2023-08-31T11:25:09;20.50;93.30
61392;DHT22;47261;52.892;5.738;2023-08-31T11:27:36;20.60;93.50
61392;DHT22;47261;52.892;5.738;2023-08-31T11:30:14;20.80;93.20
61392;DHT22;47261;52.892;5.738;2023-08-31T11:32:52;20.80;92.70
61392;DHT22;47261;52.892;5.738;2023-08-31T11:35:19;20.80;92.60
61392;DHT22;47261;52.892;5.738;2023-08-31T11:37:50;20.70;92.70
61392;DHT22;47261;52.892;5.738;2023-08-31T11:40:17;20.60;92.80
61392;DHT22;47261;52.892;5.738;2023-08-31T11:42:43;20.40;93.00
61392;DHT22;47261;52.892;5.738;2023-08-31T11:45:11;20.40;93.20
61392;DHT22;47261;52.892;5.738;2023-08-31T11:47:38;20.40;93.40
61392;DHT22;47261;52.892;5.738;2023-08-31T11:50:06;20.50;93.20
61392;DHT22;47261;52.892;5.738;2023-08-31T11:52:32;20.50;93.30
61392;DHT22;47261;52.892;5.738;2023-08-31T11:54:58;20.50;93.00
61392;DHT22;47261;52.892;5.738;2023-08-31T11:57:27;20.50;92.80
61392;DHT22;47261;52.892;5.738;2023-08-31T11:59:55;20.60;93.00
61392;DHT22;47261;52.892;5.738;2023-08-31T12:02:21;20.60;93.10
61392;DHT22;47261;52.892;5.738;2023-08-31T12:04:47;20.60;92.20
61392;DHT22;47261;52.892;5.738;2023-08-31T12:07:17;20.40;91.80
61392;DHT22;47261;52.892;5.738;2023-08-31T12:09:47;20.30;92.10
61392;DHT22;47261;52.892;5.738;2023-08-31T12:12:19;20.20;92.70
61392;DHT22;47261;52.892;5.738;2023-08-31T12:14:45;20.30;93.00
61392;DHT22;47261;52.892;5.738;2023-08-31T12:17:11;20.40;93.30
61392;DHT22;47261;52.892;5.738;2023-08-31T12:19:38;20.50;93.50
61392;DHT22;47261;52.892;5.738;2023-08-31T12:22:06;20.60;93.40
61392;DHT22;47261;52.892;5.738;2023-08-31T12:24:39;20.70;93.10
61392;DHT22;47261;52.892;5.738;2023-08-31T12:27:06;20.70;91.70
61392;DHT22;47261;52.892;5.738;2023-08-31T12:29:32;20.60;90.80
61392;DHT22;47261;52.892;5.738;2023-08-31T12:31:58;20.60;90.80
61392;DHT22;47261;52.892;5.738;2023-08-31T12:34:23;20.50;90.60
61392;DHT22;47261;52.892;5.738;2023-08-31T12:36:49;20.50;90.80
61392;DHT22;47261;52.892;5.738;2023-08-31T12:39:14;20.50;91.20
61392;DHT22;47261;52.892;5.738;2023-08-31T12:41:40;20.50;91.60
61392;DHT22;47261;52.892;5.738;2023-08-31T12:44:08;20.60;91.50
61392;DHT22;47261;52.892;5.738;2023-08-31T12:46:34;20.60;90.80
61392;DHT22;47261;52.892;5.738;2023-08-31T12:49:01;20.70;90.70
61392;DHT22;47261;52.892;5.738;2023-08-31T12:51:29;20.60;90.80
61392;DHT22;47261;52.892;5.738;2023-08-31T12:53:55;20.60;91.10
61392;DHT22;47261;52.892;5.738;2023-08-31T12:56:21;20.60;91.00
61392;DHT22;47261;52.892;5.738;2023-08-31T12:58:53;20.60;91.40
61392;DHT22;47261;52.892;5.738;2023-08-31T13:01:20;20.60;91.70
61392;DHT22;47261;52.892;5.738;2023-08-31T13:03:46;20.60;92.10
61392;DHT22;47261;52.892;5.738;2023-08-31T13:06:13;20.60;91.90
61392;DHT22;47261;52.892;5.738;2023-08-31T13:08:39;20.80;92.10
61392;DHT22;47261;52.892;5.738;2023-08-31T13:11:05;20.90;91.70
61392;DHT22;47261;52.892;5.738;2023-08-31T13:13:30;21.00;91.60
61392;DHT22;47261;52.892;5.738;2023-08-31T13:16:00;21.10;91.70
61392;DHT22;47261;52.892;5.738;2023-08-31T13:18:25;21.20;91.70
61392;DHT22;47261;52.892;5.738;2023-08-31T13:20:54;21.30;91.70
61392;DHT22;47261;52.892;5.738;2023-08-31T13:23:21;21.40;91.60
61392;DHT22;47261;52.892;5.738;2023-08-31T13:25:47;21.40;90.60
61392;DHT22;47261;52.892;5.738;2023-08-31T13:28:13;21.20;89.80
61392;DHT22;47261;52.892;5.738;2023-08-31T13:30:39;21.00;89.30
61392;DHT22;47261;52.892;5.738;2023-08-31T13:33:06;20.90;88.90
61392;DHT22;47261;52.892;5.738;2023-08-31T13:35:33;20.80;88.90
61392;DHT22;47261;52.892;5.738;2023-08-31T13:37:58;20.60;89.20
61392;DHT22;47261;52.892;5.738;2023-08-31T13:40:24;20.50;89.40
61392;DHT22;47261;52.892;5.738;2023-08-31T13:42:56;20.30;90.10
61392;DHT22;47261;52.892;5.738;2023-08-31T13:45:25;20.30;90.30
61392;DHT22;47261;52.892;5.738;2023-08-31T13:47:51;20.40;90.10
61392;DHT22;47261;52.892;5.738;2023-08-31T13:50:16;20.40;89.70
61392;DHT22;47261;52.892;5.738;2023-08-31T13:52:42;20.40;88.10
61392;DHT22;47261;52.892;5.738;2023-08-31T13:55:08;20.40;88.50
61392;DHT22;47261;52.892;5.738;2023-08-31T13:57:34;20.30;89.10
61392;DHT22;47261;52.892;5.738;2023-08-31T14:00:00;20.30;89.50
61392;DHT22;47261;52.892;5.738;2023-08-31T14:02:26;20.30;89.40
61392;DHT22;47261;52.892;5.738;2023-08-31T14:04:53;20.30;89.50
61392;DHT22;47261;52.892;5.738;2023-08-31T14:07:19;20.40;90.10
61392;DHT22;47261;52.892;5.738;2023-08-31T14:09:45;20.60;90.00
61392;DHT22;47261;52.892;5.738;2023-08-31T14:12:10;20.60;89.00
61392;DHT22;47261;52.892;5.738;2023-08-31T14:14:36;20.60;88.70
61392;DHT22;47261;52.892;5.738;2023-08-31T14:17:02;20.60;88.80
61392;DHT22;47261;52.892;5.738;2023-08-31T14:19:29;20.70;89.00
61392;DHT22;47261;52.892;5.738;2023-08-31T14:21:54;20.70;88.50
61392;DHT22;47261;52.892;5.738;2023-08-31T14:24:20;20.70;88.30
61392;DHT22;47261;52.892;5.738;2023-08-31T14:26:46;20.70;88.20
61392;DHT22;47261;52.892;5.738;2023-08-31T14:29:11;20.70;88.40
61392;DHT22;47261;52.892;5.738;2023-08-31T14:31:38;20.70;87.30
61392;DHT22;47261;52.892;5.738;2023-08-31T14:34:03;20.60;86.80
61392;DHT22;47261;52.892;5.738;2023-08-31T14:36:29;20.50;87.10
61392;DHT22;47261;52.892;5.738;2023-08-31T14:38:55;20.50;86.60
61392;DHT22;47261;52.892;5.738;2023-08-31T14:41:20;20.40;86.40
61392;DHT22;47261;52.892;5.738;2023-08-31T14:43:46;20.30;87.00
61392;DHT22;47261;52.892;5.738;2023-08-31T14:46:12;20.30;87.40
61392;DHT22;47261;52.892;5.738;2023-08-31T14:48:37;20.30;87.80
61392;DHT22;47261;52.892;5.738;2023-08-31T14:51:03;20.40;88.80
61392;DHT22;47261;52.892;5.738;2023-08-31T14:53:29;20.40;87.20
61392;DHT22;47261;52.892;5.738;2023-08-31T14:55:54;20.40;87.50
61392;DHT22;47261;52.892;5.738;2023-08-31T14:58:20;20.40;87.60
61392;DHT22;47261;52.892;5.738;2023-08-31T15:00:46;20.30;87.60
61392;DHT22;47261;52.892;5.738;2023-08-31T15:03:12;20.20;87.90
61392;DHT22;47261;52.892;5.738;2023-08-31T15:05:38;20.10;87.90
61392;DHT22;47261;52.892;5.738;2023-08-31T15:08:07;20.00;88.20
61392;DHT22;47261;52.892;5.738;2023-08-31T15:10:33;20.00;89.10
61392;DHT22;47261;52.892;5.738;2023-08-31T15:12:59;20.00;89.60
61392;DHT22;47261;52.892;5.738;2023-08-31T15:15:28;20.00;89.70
61392;DHT22;47261;52.892;5.738;2023-08-31T15:17:54;20.00;89.00
61392;DHT22;47261;52.892;5.738;2023-08-31T15:20:21;19.90;88.10
61392;DHT22;47261;52.892;5.738;2023-08-31T15:22:47;19.90;87.80
61392;DHT22;47261;52.892;5.738;2023-08-31T15:25:14;19.80;87.80
61392;DHT22;47261;52.892;5.738;2023-08-31T15:27:41;19.70;88.20
61392;DHT22;47261;52.892;5.738;2023-08-31T15:30:07;19.70;88.60
61392;DHT22;47261;52.892;5.738;2023-08-31T15:32:35;19.60;88.40
61392;DHT22;47261;52.892;5.738;2023-08-31T15:35:00;19.50;88.80
61392;DHT22;47261;52.892;5.738;2023-08-31T15:37:26;19.50;89.40
61392;DHT22;47261;52.892;5.738;2023-08-31T15:39:52;19.50;89.60